Time;durP1;ratioP1;P1;durP2;ratioP2;P2;SDS_P1;SDS_P2;PMS_P1;PMS_P2;Temp;Humidity;BMP_temperature;BMP_pressure;BME280_temperature;BME280_humidity;BME280_pressure;Samples;Min_cycle;Max_cycle;Signal;HPM_P1;HPM_P2
2023/04/16 00:00:31;;;;;;;2.03;1.93;;;12.50;99.90;;;;;;5014951;28;20211;-69
2023/04/16 00:02:58;;;;;;;1.93;1.83;;;12.50;99.90;;;;;;5023860;28;20231;-69
2023/04/16 00:05:26;;;;;;;1.63;1.53;;;12.50;99.90;;;;;;5039364;28;20206;-69
2023/04/16 00:07:53;;;;;;;1.93;1.83;;;12.50;99.90;;;;;;5025534;28;20255;-69
2023/04/16 00:10:20;;;;;;;1.80;1.70;;;12.60;99.90;;;;;;5014798;28;20658;-69
2023/04/16 00:12:47;;;;;;;1.80;1.50;;;12.60;99.90;;;;;;5031231;28;20199;-69
2023/04/16 00:15:14;;;;;;;1.60;1.50;;;12.60;99.90;;;;;;5021171;28;20307;-69
2023/04/16 00:17:42;;;;;;;1.23;1.20;;;12.50;99.90;;;;;;5024457;28;20934;-69
2023/04/16 00:20:10;;;;;;;1.17;1.17;;;12.50;99.90;;;;;;5032510;28;20686;-69
2023/04/16 00:22:37;;;;;;;1.30;1.30;;;12.50;99.90;;;;;;5029899;28;20192;-69
2023/04/16 00:25:05;;;;;;;1.40;1.30;;;12.50;99.90;;;;;;5024909;28;20992;-69
2023/04/16 00:27:32;;;;;;;1.10;1.10;;;12.50;99.90;;;;;;5030067;28;20207;-68
2023/04/16 00:29:59;;;;;;;2.30;1.70;;;12.50;99.90;;;;;;5028141;28;20206;-69
2023/04/16 00:32:26;;;;;;;2.03;1.70;;;12.50;99.90;;;;;;5025009;28;20211;-69
2023/04/16 00:34:55;;;;;;;1.77;1.67;;;12.40;99.90;;;;;;5032961;28;20209;-69
2023/04/16 00:37:22;;;;;;;1.90;1.73;;;12.50;99.90;;;;;;5033349;28;20203;-69
2023/04/16 00:39:49;;;;;;;1.77;1.67;;;12.50;99.90;;;;;;5033328;28;20190;-68
2023/04/16 00:42:17;;;;;;;1.50;1.40;;;12.50;99.90;;;;;;5014458;28;20211;-68
2023/04/16 00:44:44;;;;;;;2.00;1.90;;;12.50;99.90;;;;;;5032485;28;20200;-69
2023/04/16 00:47:11;;;;;;;1.40;1.30;;;12.50;99.90;;;;;;5025794;28;20222;-69
2023/04/16 00:49:39;;;;;;;3.27;2.03;;;12.50;99.90;;;;;;5032949;28;20626;-69
2023/04/16 00:52:07;;;;;;;3.73;2.03;;;12.50;99.90;;;;;;5021580;28;20312;-69
2023/04/16 00:54:35;;;;;;;3.13;2.27;;;12.50;99.90;;;;;;5032529;28;20195;-68
2023/04/16 00:57:02;;;;;;;2.00;1.90;;;12.50;99.90;;;;;;5030998;28;20262;-68
2023/04/16 00:59:31;;;;;;;1.83;1.73;;;12.50;99.90;;;;;;5030605;28;20294;-68
2023/04/16 01:01:58;;;;;;;2.10;1.93;;;12.50;99.90;;;;;;5026782;28;20198;-68
2023/04/16 01:04:26;;;;;;;2.83;2.53;;;12.50;99.90;;;;;;5026380;28;20239;-68
2023/04/16 01:06:53;;;;;;;2.60;2.40;;;12.50;99.90;;;;;;5030111;28;20200;-68
2023/04/16 01:09:21;;;;;;;2.13;2.03;;;12.40;99.90;;;;;;5010309;28;20294;-68
2023/04/16 01:11:48;;;;;;;3.37;3.07;;;12.40;99.90;;;;;;5029393;28;20293;-69
2023/04/16 01:14:15;;;;;;;2.83;2.53;;;12.40;99.90;;;;;;5031575;28;20198;-69
2023/04/16 01:16:42;;;;;;;2.17;2.07;;;12.40;99.90;;;;;;5029539;28;20307;-69
2023/04/16 01:19:09;;;;;;;2.77;2.57;;;12.40;99.90;;;;;;5030078;28;20203;-68
2023/04/16 01:21:38;;;;;;;2.10;2.00;;;12.30;99.90;;;;;;5026538;28;20235;-69
2023/04/16 01:24:05;;;;;;;1.70;1.60;;;12.30;99.90;;;;;;5026058;28;20221;-67
2023/04/16 01:26:33;;;;;;;2.20;2.10;;;12.30;99.90;;;;;;5020804;28;20258;-66
2023/04/16 01:29:00;;;;;;;1.70;1.60;;;12.30;99.90;;;;;;5023231;28;20198;-68
2023/04/16 01:31:27;;;;;;;1.67;1.57;;;12.30;99.90;;;;;;5024476;28;20215;-68
2023/04/16 01:34:14;;;;;;;2.10;2.00;;;12.30;99.90;;;;;;5028014;28;20610;-69
2023/04/16 01:36:43;;;;;;;2.80;2.60;;;12.30;99.90;;;;;;5030501;28;20537;-69
2023/04/16 01:39:14;;;;;;;1.90;1.80;;;12.30;99.90;;;;;;5031851;28;20206;-69
2023/04/16 01:41:41;;;;;;;2.60;2.10;;;12.30;99.90;;;;;;5027175;28;20193;-69
2023/04/16 01:44:10;;;;;;;1.90;1.80;;;12.30;99.90;;;;;;5031258;28;20631;-69
2023/04/16 01:46:38;;;;;;;1.50;1.40;;;12.40;99.90;;;;;;5024286;28;20273;-69
2023/04/16 01:49:06;;;;;;;1.93;1.83;;;12.30;99.90;;;;;;5025150;28;20192;-69
2023/04/16 01:51:33;;;;;;;1.83;1.73;;;12.30;99.90;;;;;;5018815;28;20708;-68
2023/04/16 01:54:01;;;;;;;2.30;2.20;;;12.30;99.90;;;;;;4994161;28;20290;-68
2023/04/16 01:56:28;;;;;;;2.20;2.10;;;12.30;99.90;;;;;;5007291;28;20202;-68
2023/04/16 01:58:55;;;;;;;2.40;2.20;;;12.20;99.90;;;;;;5017465;28;20215;-68
2023/04/16 02:01:24;;;;;;;2.20;2.07;;;12.20;99.90;;;;;;5043097;28;20195;-68
2023/04/16 02:03:52;;;;;;;1.87;1.77;;;12.20;99.90;;;;;;5034416;28;20238;-68
2023/04/16 02:06:20;;;;;;;1.90;1.80;;;12.20;99.90;;;;;;5022830;28;20250;-68
2023/04/16 02:08:47;;;;;;;3.50;2.70;;;12.20;99.90;;;;;;5032013;28;20269;-68
2023/04/16 02:11:16;;;;;;;2.87;2.67;;;12.10;99.90;;;;;;5022972;28;20187;-68
2023/04/16 02:13:43;;;;;;;2.93;2.70;;;12.10;99.90;;;;;;5023960;28;20298;-68
2023/04/16 02:16:11;;;;;;;5.10;3.30;;;12.10;99.90;;;;;;5036171;28;20393;-68
2023/04/16 02:18:52;;;;;;;3.20;2.90;;;12.10;99.90;;;;;;5034426;28;20202;-69
2023/04/16 02:21:21;;;;;;;2.47;2.27;;;12.10;99.90;;;;;;5027412;28;20205;-68
2023/04/16 02:23:50;;;;;;;2.63;2.43;;;12.10;99.90;;;;;;5027318;28;20196;-69
2023/04/16 02:26:20;;;;;;;2.10;2.00;;;12.00;99.90;;;;;;5031087;28;20654;-68
2023/04/16 02:28:49;;;;;;;2.90;2.60;;;12.00;99.90;;;;;;5026754;28;20199;-68
2023/04/16 02:31:21;;;;;;;2.40;2.20;;;12.00;99.90;;;;;;5018730;28;20701;-67
2023/04/16 02:33:48;;;;;;;1.70;1.60;;;12.00;99.90;;;;;;5005007;28;20234;-68
2023/04/16 02:36:15;;;;;;;1.80;1.70;;;11.90;99.90;;;;;;5023843;28;20222;-67
2023/04/16 02:38:42;;;;;;;1.97;1.87;;;11.90;99.90;;;;;;5026714;28;20220;-68
2023/04/16 02:41:09;;;;;;;3.00;2.80;;;11.90;99.90;;;;;;5029311;28;20623;-68
2023/04/16 02:43:38;;;;;;;8.50;2.70;;;11.90;99.90;;;;;;5010669;28;20204;-68
2023/04/16 02:46:05;;;;;;;3.57;3.00;;;12.00;99.90;;;;;;5007056;28;20218;-68
2023/04/16 02:48:32;;;;;;;2.80;2.60;;;12.00;99.90;;;;;;5010691;28;20202;-68
2023/04/16 02:51:00;;;;;;;2.50;2.30;;;12.10;99.90;;;;;;5019438;28;20199;-68
2023/04/16 02:53:27;;;;;;;2.20;2.00;;;12.00;99.90;;;;;;5027900;28;20306;-68
2023/04/16 02:55:55;;;;;;;2.20;1.70;;;12.00;99.90;;;;;;5024429;28;20733;-69
2023/04/16 02:58:23;;;;;;;1.80;1.70;;;12.00;99.90;;;;;;5026726;28;20210;-68
2023/04/16 03:00:53;;;;;;;9.13;2.60;;;12.00;99.90;;;;;;5007604;28;20685;-69
2023/04/16 03:03:20;;;;;;;2.10;2.00;;;12.00;99.90;;;;;;5007429;28;21071;-69
2023/04/16 03:05:48;;;;;;;2.20;2.10;;;12.00;99.90;;;;;;5028127;28;20237;-69
2023/04/16 03:08:16;;;;;;;2.50;2.30;;;12.00;99.90;;;;;;5010562;28;20596;-68
2023/04/16 03:10:43;;;;;;;2.30;2.10;;;12.00;99.90;;;;;;5028521;28;20222;-69
2023/04/16 03:13:10;;;;;;;2.90;2.70;;;11.90;99.90;;;;;;5029773;28;20202;-69
2023/04/16 03:15:38;;;;;;;3.43;3.13;;;11.90;99.90;;;;;;5028113;28;20199;-69
2023/04/16 03:18:06;;;;;;;2.73;2.53;;;11.90;99.90;;;;;;5027356;28;20201;-69
2023/04/16 03:20:33;;;;;;;2.40;2.20;;;11.90;99.90;;;;;;5028019;28;20543;-69
2023/04/16 03:23:00;;;;;;;2.00;1.90;;;11.90;99.90;;;;;;5029283;28;20225;-68
2023/04/16 03:25:28;;;;;;;2.50;2.30;;;11.90;99.90;;;;;;5008066;28;20204;-68
2023/04/16 03:27:55;;;;;;;3.40;3.10;;;11.90;99.90;;;;;;5008753;28;20671;-68
2023/04/16 03:30:22;;;;;;;4.33;2.80;;;11.90;99.90;;;;;;5028306;28;20194;-68
2023/04/16 03:32:50;;;;;;;3.83;2.80;;;12.00;99.90;;;;;;5026948;28;20274;-67
2023/04/16 03:35:19;;;;;;;3.60;2.40;;;12.00;99.90;;;;;;5013192;28;20207;-67
2023/04/16 03:37:46;;;;;;;3.10;2.40;;;11.90;99.90;;;;;;5014956;28;20275;-69
2023/04/16 03:40:14;;;;;;;2.30;2.20;;;11.90;99.90;;;;;;5032902;28;20269;-68
2023/04/16 03:42:41;;;;;;;2.30;2.10;;;11.80;99.90;;;;;;5012296;28;20267;-68
2023/04/16 03:45:09;;;;;;;1.97;1.83;;;11.90;99.90;;;;;;5033139;28;20336;-68
2023/04/16 03:47:37;;;;;;;2.63;2.43;;;11.80;99.90;;;;;;5029243;28;20194;-68
2023/04/16 03:50:04;;;;;;;3.20;2.87;;;11.90;99.90;;;;;;5013261;28;20742;-68
2023/04/16 03:52:33;;;;;;;4.07;3.47;;;11.80;99.90;;;;;;5012010;28;20203;-68
2023/04/16 03:55:02;;;;;;;3.13;2.90;;;11.80;99.90;;;;;;5023968;28;20206;-69
2023/04/16 03:57:31;;;;;;;2.60;2.40;;;11.80;99.90;;;;;;5031337;28;20212;-69
2023/04/16 04:00:04;;;;;;;3.20;3.00;;;11.80;99.90;;;;;;5014964;28;20290;-69
2023/04/16 04:02:41;;;;;;;3.37;3.07;;;11.80;99.90;;;;;;5029912;28;20669;-69
2023/04/16 04:05:14;;;;;;;3.37;3.07;;;11.80;99.90;;;;;;5020883;28;20201;-69
2023/04/16 04:07:46;;;;;;;4.20;3.57;;;11.80;99.90;;;;;;5031595;28;20208;-68
2023/04/16 04:10:15;;;;;;;4.87;4.33;;;11.80;99.90;;;;;;5045007;28;20665;-69
2023/04/16 04:12:43;;;;;;;4.10;3.70;;;11.80;99.90;;;;;;5005198;28;20299;-69
2023/04/16 04:15:11;;;;;;;3.30;3.00;;;11.80;99.90;;;;;;5025605;28;20328;-69
2023/04/16 04:17:41;;;;;;;5.90;3.70;;;11.70;99.90;;;;;;5022663;28;20237;-69
2023/04/16 04:20:09;;;;;;;4.37;3.97;;;11.70;99.90;;;;;;5030924;28;20263;-68
2023/04/16 04:22:37;;;;;;;4.47;4.07;;;11.70;99.90;;;;;;5005077;28;20209;-68
2023/04/16 04:25:07;;;;;;;7.33;4.83;;;11.70;99.90;;;;;;5012396;28;20198;-68
2023/04/16 04:27:34;;;;;;;4.80;4.30;;;11.70;99.90;;;;;;5019265;28;20203;-68
2023/04/16 04:30:01;;;;;;;6.10;4.90;;;11.60;99.90;;;;;;5031483;28;20678;-68
2023/04/16 04:32:29;;;;;;;11.57;5.00;;;11.60;99.90;;;;;;5010624;28;20205;-68
2023/04/16 04:34:56;;;;;;;6.10;5.03;;;11.60;99.90;;;;;;5030785;28;20214;-68
2023/04/16 04:37:23;;;;;;;4.83;4.10;;;11.60;99.90;;;;;;5031684;28;20694;-68
2023/04/16 04:39:50;;;;;;;4.33;3.70;;;11.50;99.90;;;;;;5031751;28;20673;-67
2023/04/16 04:42:20;;;;;;;6.03;4.77;;;11.50;99.90;;;;;;5036972;28;20217;-69
2023/04/16 04:44:47;;;;;;;5.13;3.70;;;11.50;99.90;;;;;;5031394;28;20204;-68
2023/04/16 04:47:15;;;;;;;4.70;4.30;;;11.50;99.90;;;;;;5027836;28;20202;-68
2023/04/16 04:49:42;;;;;;;4.40;4.00;;;11.50;99.90;;;;;;5046427;28;20206;-68
2023/04/16 04:52:10;;;;;;;4.20;3.80;;;11.50;99.90;;;;;;5042463;28;20296;-68
2023/04/16 04:54:40;;;;;;;6.13;3.73;;;11.50;99.90;;;;;;5019672;28;20591;-68
2023/04/16 04:57:07;;;;;;;6.70;3.83;;;11.50;99.90;;;;;;5028953;28;20222;-69
2023/04/16 04:59:36;;;;;;;4.17;3.77;;;11.50;99.90;;;;;;5013311;28;20301;-69
2023/04/16 05:02:03;;;;;;;5.77;3.83;;;11.50;99.90;;;;;;5007769;28;20580;-67
2023/04/16 05:04:30;;;;;;;4.80;3.57;;;11.50;99.90;;;;;;5002433;28;20234;-68
2023/04/16 05:06:57;;;;;;;4.07;3.70;;;11.50;99.90;;;;;;5028818;28;20191;-68
2023/04/16 05:09:24;;;;;;;5.63;3.77;;;11.50;99.90;;;;;;5015575;28;20231;-67
2023/04/16 05:11:51;;;;;;;3.80;3.17;;;11.50;99.90;;;;;;5019374;28;20194;-67
2023/04/16 05:14:18;;;;;;;3.00;2.67;;;11.50;99.90;;;;;;5020428;28;20700;-67
2023/04/16 05:16:47;;;;;;;3.53;3.23;;;11.60;99.90;;;;;;5026703;28;20721;-67
2023/04/16 05:19:14;;;;;;;4.10;3.30;;;11.60;99.90;;;;;;5020962;28;20232;-67
2023/04/16 05:21:41;;;;;;;3.30;2.90;;;11.60;99.90;;;;;;5028826;28;20217;-67
2023/04/16 05:24:08;;;;;;;3.63;3.20;;;11.60;99.90;;;;;;5029853;28;20547;-67
2023/04/16 05:26:35;;;;;;;5.20;3.97;;;11.60;99.90;;;;;;5030170;28;20195;-67
2023/04/16 05:29:02;;;;;;;5.93;4.33;;;11.60;99.90;;;;;;5026957;28;20205;-67
2023/04/16 05:31:29;;;;;;;6.13;4.23;;;11.60;99.90;;;;;;5026754;28;20245;-67
2023/04/16 05:33:57;;;;;;;7.90;4.40;;;11.60;99.90;;;;;;5030820;28;20196;-67
2023/04/16 05:36:24;;;;;;;6.70;4.70;;;11.60;99.90;;;;;;5030308;28;20214;-68
2023/04/16 05:38:51;;;;;;;5.77;4.63;;;11.60;99.90;;;;;;5030311;28;20569;-68
2023/04/16 05:41:18;;;;;;;6.30;4.20;;;11.60;99.90;;;;;;5027739;28;20222;-67
2023/04/16 05:43:45;;;;;;;3.40;3.10;;;11.60;99.90;;;;;;5030317;28;20230;-68
2023/04/16 05:46:13;;;;;;;6.77;4.80;;;11.60;99.90;;;;;;5026566;28;20720;-68
2023/04/16 05:48:40;;;;;;;4.53;3.87;;;11.60;99.90;;;;;;5030097;28;20562;-68
2023/04/16 05:51:08;;;;;;;3.47;3.17;;;11.60;99.90;;;;;;5024357;28;20643;-68
2023/04/16 05:53:35;;;;;;;4.60;3.63;;;11.60;99.90;;;;;;5026839;28;20701;-68
2023/04/16 05:56:02;;;;;;;3.90;3.50;;;11.70;99.90;;;;;;5028572;28;20260;-68
2023/04/16 05:58:31;;;;;;;2.80;2.60;;;11.70;99.90;;;;;;5029336;28;20625;-69
2023/04/16 06:00:59;;;;;;;5.20;4.50;;;11.70;99.90;;;;;;5023527;28;20688;-67
2023/04/16 06:03:26;;;;;;;4.97;3.70;;;11.70;99.90;;;;;;5026786;28;20258;-68
2023/04/16 06:05:54;;;;;;;5.60;4.70;;;11.70;99.90;;;;;;5022474;28;20281;-68
2023/04/16 06:08:22;;;;;;;8.27;4.83;;;11.80;99.90;;;;;;5025403;28;20301;-68
2023/04/16 06:10:49;;;;;;;6.07;4.83;;;11.80;99.90;;;;;;5027358;28;20854;-68
2023/04/16 06:13:17;;;;;;;8.80;5.47;;;11.70;99.90;;;;;;5029769;28;20205;-68
2023/04/16 06:15:44;;;;;;;6.47;4.87;;;11.70;99.90;;;;;;5027983;28;20201;-68
2023/04/16 06:18:11;;;;;;;4.00;3.60;;;11.70;99.90;;;;;;5021949;28;20291;-68
2023/04/16 06:20:38;;;;;;;8.50;5.17;;;11.70;99.90;;;;;;5030408;28;20612;-66
2023/04/16 06:23:05;;;;;;;6.33;4.60;;;11.60;99.90;;;;;;5027458;28;20236;-68
2023/04/16 06:25:34;;;;;;;11.50;6.40;;;11.70;99.90;;;;;;5028556;28;20224;-68
2023/04/16 06:28:01;;;;;;;9.87;5.67;;;11.70;99.90;;;;;;5030267;28;20300;-67
2023/04/16 06:30:28;;;;;;;7.67;5.07;;;11.70;99.90;;;;;;5030468;28;20218;-67
2023/04/16 06:32:55;;;;;;;6.60;5.00;;;11.70;99.90;;;;;;5021584;28;20576;-67
2023/04/16 06:35:22;;;;;;;7.43;4.70;;;11.70;99.90;;;;;;5022967;28;20720;-67
2023/04/16 06:37:49;;;;;;;4.93;4.37;;;11.70;99.90;;;;;;5023043;28;20221;-68
2023/04/16 06:40:16;;;;;;;6.07;4.23;;;11.70;99.90;;;;;;5023453;28;20214;-67
2023/04/16 06:42:45;;;;;;;5.23;4.13;;;11.70;99.90;;;;;;5023870;28;20204;-68
2023/04/16 06:45:13;;;;;;;4.60;3.97;;;11.70;99.90;;;;;;5029844;28;20210;-67
2023/04/16 06:47:41;;;;;;;4.77;3.63;;;11.70;99.90;;;;;;5023390;28;20249;-68
2023/04/16 06:50:08;;;;;;;3.60;3.23;;;11.70;99.90;;;;;;5030232;28;20665;-68
2023/04/16 06:52:35;;;;;;;4.03;3.63;;;11.80;99.90;;;;;;5019599;28;20206;-68
2023/04/16 06:55:03;;;;;;;3.80;3.40;;;11.80;99.90;;;;;;5029332;28;20613;-68
2023/04/16 06:57:30;;;;;;;3.10;2.90;;;11.80;99.90;;;;;;5030026;28;20214;-68
2023/04/16 06:59:58;;;;;;;4.60;3.30;;;11.80;99.90;;;;;;5027664;28;20622;-69
2023/04/16 07:02:25;;;;;;;4.37;3.97;;;11.80;99.90;;;;;;5026389;28;20205;-69
2023/04/16 07:04:52;;;;;;;4.40;3.50;;;11.80;99.90;;;;;;5019084;28;20261;-68
2023/04/16 07:07:19;;;;;;;3.80;3.40;;;11.80;99.90;;;;;;5023119;28;20681;-68
2023/04/16 07:09:46;;;;;;;3.47;3.17;;;11.80;99.90;;;;;;5028921;28;20559;-68
2023/04/16 07:12:16;;;;;;;4.13;3.63;;;11.80;99.90;;;;;;5028148;28;20288;-69
2023/04/16 07:14:43;;;;;;;6.93;3.43;;;11.90;99.90;;;;;;5018293;28;20193;-68
2023/04/16 07:17:12;;;;;;;3.87;3.40;;;11.90;99.90;;;;;;5025708;28;20357;-68
2023/04/16 07:19:39;;;;;;;6.30;4.10;;;11.90;99.90;;;;;;5026482;28;20285;-68
2023/04/16 07:22:06;;;;;;;5.83;3.90;;;11.90;99.90;;;;;;5028523;28;20225;-68
2023/04/16 07:24:34;;;;;;;4.83;3.77;;;11.90;99.90;;;;;;5028735;28;20589;-68
2023/04/16 07:27:01;;;;;;;4.03;3.47;;;11.90;99.90;;;;;;5029122;28;20193;-68
2023/04/16 07:29:28;;;;;;;5.20;4.07;;;11.90;99.90;;;;;;5025935;28;20190;-68
2023/04/16 07:31:55;;;;;;;5.90;4.97;;;11.90;99.90;;;;;;5026146;28;20368;-68
2023/04/16 07:34:24;;;;;;;6.40;4.00;;;12.00;99.90;;;;;;5027620;28;20205;-68
2023/04/16 07:36:51;;;;;;;7.73;4.70;;;11.90;99.90;;;;;;5026341;28;20198;-68
2023/04/16 07:39:18;;;;;;;7.87;4.80;;;12.00;99.90;;;;;;5029076;28;20218;-67
2023/04/16 07:41:45;;;;;;;7.60;4.60;;;11.90;99.90;;;;;;5014965;28;20630;-67
2023/04/16 07:44:12;;;;;;;4.60;4.20;;;11.90;99.90;;;;;;5028296;28;20256;-67
2023/04/16 07:46:39;;;;;;;4.77;4.00;;;11.90;99.90;;;;;;5025799;28;20213;-68
2023/04/16 07:49:06;;;;;;;4.20;3.80;;;11.90;99.90;;;;;;5028955;28;20205;-67
2023/04/16 07:51:35;;;;;;;4.43;3.87;;;11.90;99.90;;;;;;5017924;28;20198;-66
2023/04/16 07:54:02;;;;;;;4.17;3.70;;;12.00;99.90;;;;;;5012517;28;20190;-67
2023/04/16 07:56:29;;;;;;;5.67;4.13;;;12.00;99.90;;;;;;5016023;28;20253;-67
2023/04/16 07:58:56;;;;;;;4.63;3.83;;;12.00;99.90;;;;;;5024619;28;20253;-67
2023/04/16 08:01:23;;;;;;;5.20;3.87;;;12.00;99.90;;;;;;5029270;28;20212;-67
2023/04/16 08:03:51;;;;;;;3.50;3.20;;;12.00;99.90;;;;;;5012004;28;20241;-67
2023/04/16 08:06:18;;;;;;;4.37;3.60;;;12.10;99.90;;;;;;5027294;28;20310;-67
2023/04/16 08:08:46;;;;;;;8.63;4.63;;;12.20;99.90;;;;;;5024864;28;20310;-67
2023/04/16 08:11:14;;;;;;;11.57;4.50;;;12.30;99.90;;;;;;5023953;28;20201;-67
2023/04/16 08:13:41;;;;;;;4.33;3.33;;;12.40;99.90;;;;;;5029307;28;20200;-67
2023/04/16 08:16:08;;;;;;;3.87;2.67;;;12.50;99.90;;;;;;5026354;28;20208;-68
2023/04/16 08:18:36;;;;;;;2.77;2.57;;;12.60;99.90;;;;;;5028991;28;20215;-68
2023/04/16 08:21:03;;;;;;;2.80;2.20;;;12.70;99.90;;;;;;5031101;28;20232;-68
2023/04/16 08:23:30;;;;;;;2.40;2.10;;;12.80;99.90;;;;;;5032920;28;20654;-67
2023/04/16 08:25:58;;;;;;;2.53;2.30;;;12.80;99.90;;;;;;5019233;28;20721;-67
2023/04/16 08:28:25;;;;;;;1.63;1.53;;;13.00;99.90;;;;;;5030379;28;20225;-68
2023/04/16 08:30:52;;;;;;;2.00;1.90;;;13.10;99.90;;;;;;5030460;28;20206;-69
2023/04/16 08:33:21;;;;;;;2.07;1.97;;;13.30;99.90;;;;;;5031172;28;20202;-68
2023/04/16 08:35:50;;;;;;;1.50;1.40;;;13.40;99.90;;;;;;5021286;28;20200;-68
2023/04/16 08:38:17;;;;;;;1.70;1.60;;;13.50;99.90;;;;;;5022761;28;20318;-69
2023/04/16 08:40:49;;;;;;;1.83;1.73;;;13.60;99.90;;;;;;5026869;28;20206;-69
2023/04/16 08:43:21;;;;;;;1.77;1.60;;;13.70;99.90;;;;;;5015111;28;20230;-68
2023/04/16 08:45:49;;;;;;;1.23;1.23;;;13.70;99.90;;;;;;5029960;28;20202;-68
2023/04/16 08:48:19;;;;;;;1.70;1.60;;;13.70;99.90;;;;;;5020572;28;20201;-68
2023/04/16 08:50:48;;;;;;;1.43;1.40;;;13.70;99.90;;;;;;5029389;28;20206;-67
2023/04/16 08:53:20;;;;;;;1.30;1.20;;;13.80;99.90;;;;;;5025699;28;20575;-68
2023/04/16 08:55:51;;;;;;;1.60;1.50;;;13.80;99.80;;;;;;5025122;28;20239;-68
2023/04/16 08:58:30;;;;;;;0.97;0.97;;;13.80;99.60;;;;;;5026048;28;20314;-68
2023/04/16 09:00:57;;;;;;;1.00;1.00;;;13.80;99.70;;;;;;5027756;28;20210;-67
2023/04/16 09:03:25;;;;;;;1.00;1.00;;;13.80;99.30;;;;;;5025608;28;20756;-66
2023/04/16 09:05:56;;;;;;;1.07;1.07;;;13.80;99.70;;;;;;5023713;28;20674;-68
2023/04/16 09:08:26;;;;;;;0.90;0.90;;;13.90;99.30;;;;;;5032353;28;20192;-67
2023/04/16 09:10:55;;;;;;;0.80;0.80;;;13.90;99.10;;;;;;5029560;28;20214;-67
2023/04/16 09:13:23;;;;;;;1.63;1.53;;;13.90;99.00;;;;;;5027430;28;20196;-67
2023/04/16 09:15:52;;;;;;;1.40;1.30;;;14.00;98.10;;;;;;5030665;28;20300;-68
2023/04/16 09:18:20;;;;;;;1.40;1.30;;;14.10;97.50;;;;;;5031122;28;20298;-68
2023/04/16 09:20:48;;;;;;;1.30;1.30;;;14.10;97.40;;;;;;5010446;28;20204;-68
2023/04/16 09:23:15;;;;;;;1.80;1.70;;;14.10;97.10;;;;;;5030275;28;20257;-67
2023/04/16 09:25:42;;;;;;;1.70;1.60;;;14.10;97.00;;;;;;5028591;28;20987;-67
2023/04/16 09:28:10;;;;;;;1.37;1.27;;;14.20;96.70;;;;;;5031355;28;20738;-68
2023/04/16 09:30:38;;;;;;;1.43;1.33;;;14.10;96.90;;;;;;5010657;28;20563;-68
2023/04/16 09:33:21;;;;;;;1.17;1.17;;;14.20;97.00;;;;;;5023099;28;20216;-68
2023/04/16 09:35:49;;;;;;;1.70;1.60;;;14.20;97.10;;;;;;5026361;28;20200;-69
2023/04/16 09:38:17;;;;;;;1.60;1.50;;;14.20;96.60;;;;;;5029929;28;20216;-69
2023/04/16 09:40:46;;;;;;;1.40;1.40;;;14.20;96.30;;;;;;5030701;28;20204;-68
2023/04/16 09:43:15;;;;;;;1.30;1.20;;;14.20;96.60;;;;;;5028043;28;20204;-68
2023/04/16 09:45:51;;;;;;;1.23;1.23;;;14.30;96.80;;;;;;5031049;28;20212;-68
2023/04/16 09:48:28;;;;;;;1.40;1.30;;;14.40;96.70;;;;;;5023891;28;20251;-68
2023/04/16 09:50:56;;;;;;;1.33;1.23;;;14.40;96.60;;;;;;5024866;28;20217;-68
2023/04/16 09:53:25;;;;;;;1.47;1.37;;;14.50;96.40;;;;;;5031501;28;20204;-68
2023/04/16 09:55:52;;;;;;;1.17;1.13;;;14.50;96.30;;;;;;5031873;28;20328;-67
2023/04/16 09:58:19;;;;;;;1.10;1.10;;;14.50;96.30;;;;;;5027845;28;20220;-66
2023/04/16 10:00:46;;;;;;;1.23;1.13;;;14.50;96.20;;;;;;5029599;28;20202;-68
2023/04/16 10:03:16;;;;;;;1.40;1.30;;;14.60;96.20;;;;;;5029666;28;20233;-67
2023/04/16 10:05:43;;;;;;;1.27;1.27;;;14.60;95.80;;;;;;5031561;28;20228;-67
2023/04/16 10:08:14;;;;;;;1.10;1.10;;;14.60;95.80;;;;;;5030465;28;20220;-67
2023/04/16 10:10:41;;;;;;;1.57;1.43;;;14.70;95.70;;;;;;5031588;28;20558;-68
2023/04/16 10:13:09;;;;;;;1.03;1.00;;;14.70;95.60;;;;;;5030194;28;20206;-68
2023/04/16 10:15:36;;;;;;;1.10;1.10;;;14.70;95.60;;;;;;5030280;28;20209;-67
2023/04/16 10:18:05;;;;;;;1.20;1.20;;;14.70;95.40;;;;;;5028426;28;20209;-68
2023/04/16 10:20:33;;;;;;;1.60;1.50;;;14.60;95.30;;;;;;5024877;28;20667;-68
2023/04/16 10:23:01;;;;;;;1.37;1.23;;;14.50;94.30;;;;;;5030713;28;20197;-69
2023/04/16 10:25:29;;;;;;;1.20;1.20;;;14.40;93.90;;;;;;5022899;28;20272;-69
2023/04/16 10:27:58;;;;;;;1.40;1.30;;;14.40;94.20;;;;;;5029112;28;20294;-69
2023/04/16 10:30:26;;;;;;;1.20;1.20;;;14.40;94.40;;;;;;5029934;28;20681;-68
2023/04/16 10:32:53;;;;;;;1.53;1.13;;;14.50;94.60;;;;;;5023966;28;20788;-66
2023/04/16 10:35:20;;;;;;;1.80;1.70;;;14.60;94.70;;;;;;5026182;28;20220;-67
2023/04/16 10:37:50;;;;;;;1.40;1.30;;;14.70;94.10;;;;;;5029757;28;20257;-67
2023/04/16 10:40:24;;;;;;;2.20;2.00;;;14.90;93.90;;;;;;5030352;28;20213;-67
2023/04/16 10:42:56;;;;;;;2.33;1.80;;;15.00;93.10;;;;;;5021202;28;20205;-67
2023/04/16 10:45:30;;;;;;;1.40;1.40;;;15.00;92.90;;;;;;5024765;28;20598;-67
2023/04/16 10:47:57;;;;;;;1.60;1.50;;;15.00;93.10;;;;;;5021811;28;20551;-67
2023/04/16 10:50:24;;;;;;;1.80;1.70;;;15.10;93.00;;;;;;5023948;28;20214;-68
2023/04/16 10:53:21;;;;;;;2.93;1.50;;;15.20;92.90;;;;;;5029372;28;20203;-67
2023/04/16 10:56:14;;;;;;;1.67;1.57;;;15.20;93.00;;;;;;5028121;28;20232;-67
2023/04/16 10:58:42;;;;;;;1.90;1.80;;;15.30;93.00;;;;;;5027272;28;20229;-67
2023/04/16 11:01:13;;;;;;;2.20;2.00;;;15.30;92.70;;;;;;5027486;28;20201;-67
2023/04/16 11:03:46;;;;;;;2.03;1.83;;;15.20;91.90;;;;;;5029749;28;20242;-67
2023/04/16 11:06:15;;;;;;;1.90;1.80;;;15.20;91.60;;;;;;5032205;28;20770;-68
2023/04/16 11:08:44;;;;;;;1.90;1.80;;;15.10;91.50;;;;;;5028102;28;20217;-67
2023/04/16 11:11:13;;;;;;;1.83;1.73;;;15.00;91.70;;;;;;5023269;28;20208;-67
2023/04/16 11:13:43;;;;;;;1.73;1.63;;;15.00;92.10;;;;;;5031727;28;20569;-68
2023/04/16 11:16:10;;;;;;;1.80;1.70;;;14.90;91.90;;;;;;5029041;28;20954;-68
2023/04/16 11:18:39;;;;;;;2.57;1.97;;;14.90;91.70;;;;;;5025036;28;20309;-68
2023/04/16 11:21:08;;;;;;;1.50;1.40;;;14.90;91.60;;;;;;5028991;28;20282;-68
2023/04/16 11:23:46;;;;;;;1.63;1.40;;;14.90;91.90;;;;;;5023511;28;20203;-68
2023/04/16 11:26:25;;;;;;;1.80;1.70;;;14.90;92.10;;;;;;5025483;28;20201;-69
2023/04/16 11:28:54;;;;;;;2.53;2.20;;;14.90;91.90;;;;;;5026564;28;20194;-69
2023/04/16 11:31:22;;;;;;;1.70;1.60;;;14.90;91.70;;;;;;5018646;28;20218;-69
2023/04/16 11:33:49;;;;;;;1.70;1.60;;;14.90;91.90;;;;;;5027342;28;21835;-68
2023/04/16 11:36:16;;;;;;;1.70;1.60;;;14.90;92.10;;;;;;5018766;28;20203;-69
2023/04/16 11:38:43;;;;;;;1.20;1.20;;;15.30;92.40;;;;;;5028470;28;20230;-69
2023/04/16 11:41:10;;;;;;;1.30;1.20;;;15.10;92.40;;;;;;5028638;28;20252;-70
2023/04/16 11:43:39;;;;;;;1.57;1.40;;;15.10;92.40;;;;;;5018107;28;20269;-70
2023/04/16 11:46:07;;;;;;;1.63;1.53;;;15.10;92.40;;;;;;5026247;28;20202;-68
2023/04/16 11:48:47;;;;;;;1.50;1.40;;;15.00;92.20;;;;;;5022290;28;20206;-68
2023/04/16 11:51:15;;;;;;;1.40;1.30;;;15.00;92.40;;;;;;5027029;28;20281;-70
2023/04/16 11:53:49;;;;;;;1.10;1.10;;;14.90;92.40;;;;;;5032098;28;20225;-70
2023/04/16 11:56:25;;;;;;;2.03;1.90;;;14.80;92.50;;;;;;5027525;28;20300;-69
2023/04/16 11:59:09;;;;;;;2.17;2.07;;;14.70;92.50;;;;;;5024999;28;20273;-69
2023/04/16 12:01:38;;;;;;;1.87;1.77;;;14.70;92.40;;;;;;5029088;28;20608;-69
2023/04/16 12:04:05;;;;;;;2.20;2.10;;;14.70;92.50;;;;;;5032229;28;20314;-69
2023/04/16 12:06:32;;;;;;;1.70;1.60;;;14.70;92.70;;;;;;5018259;28;20205;-71
2023/04/16 12:08:59;;;;;;;1.60;1.50;;;14.70;92.80;;;;;;5030270;28;20190;-69
2023/04/16 12:11:39;;;;;;;2.23;2.10;;;14.70;92.90;;;;;;5027697;28;20267;-69
2023/04/16 12:14:12;;;;;;;2.33;2.13;;;14.60;92.80;;;;;;5026659;28;20229;-69
2023/04/16 12:16:39;;;;;;;2.30;2.17;;;14.60;92.90;;;;;;5030530;28;20194;-69
2023/04/16 12:19:06;;;;;;;1.73;1.53;;;14.70;92.90;;;;;;5031371;28;20598;-69
2023/04/16 12:21:41;;;;;;;1.57;1.47;;;14.60;92.90;;;;;;5038678;28;20268;-69
2023/04/16 12:24:10;;;;;;;1.60;1.50;;;14.60;93.00;;;;;;5027276;28;20288;-69
2023/04/16 12:26:42;;;;;;;1.67;1.57;;;14.60;93.10;;;;;;5026750;28;20198;-67
2023/04/16 12:29:18;;;;;;;1.63;1.50;;;14.70;93.00;;;;;;5028602;28;20212;-67
2023/04/16 12:31:46;;;;;;;1.80;1.70;;;14.70;92.90;;;;;;5015327;28;20197;-68
2023/04/16 12:34:14;;;;;;;1.53;1.43;;;14.70;92.90;;;;;;5034827;28;20250;-69
2023/04/16 12:36:41;;;;;;;1.97;1.70;;;14.60;92.90;;;;;;5037519;28;20206;-68
2023/04/16 12:39:09;;;;;;;2.10;1.90;;;14.60;93.00;;;;;;5031193;28;20222;-68
2023/04/16 12:41:38;;;;;;;2.27;2.17;;;14.60;93.00;;;;;;5025553;28;20210;-69
2023/04/16 12:44:07;;;;;;;2.53;2.33;;;14.50;92.80;;;;;;5022194;28;20206;-69
2023/04/16 12:46:37;;;;;;;2.60;2.40;;;14.40;92.80;;;;;;5027035;28;20628;-69
2023/04/16 12:49:04;;;;;;;2.60;2.40;;;14.40;92.70;;;;;;5025527;28;20199;-69
2023/04/16 12:51:32;;;;;;;2.47;1.93;;;14.30;92.70;;;;;;5042854;28;20210;-68